Time;durP1;ratioP1;P1;durP2;ratioP2;P2;SDS_P1;SDS_P2;PMS_P1;PMS_P2;Temp;Humidity;BMP_temperature;BMP_pressure;BME280_temperature;BME280_humidity;BME280_pressure;Samples;Min_cycle;Max_cycle;Signal;HPM_P1;HPM_P2
2023/05/08 00:01:51;;;;;;;6.00;5.50;;;8.20;99.90;;;;;;5025961;28;20421;-69
2023/05/08 00:04:19;;;;;;;4.30;4.00;;;8.20;99.90;;;;;;5021500;28;20167;-68
2023/05/08 00:06:45;;;;;;;5.43;4.93;;;8.20;99.90;;;;;;5013431;28;20480;-68
2023/05/08 00:09:10;;;;;;;5.13;4.57;;;8.20;99.90;;;;;;5024371;28;20929;-67
2023/05/08 00:11:36;;;;;;;4.70;4.30;;;8.10;99.90;;;;;;5020640;28;20509;-67
2023/05/08 00:14:02;;;;;;;4.30;4.00;;;8.00;99.90;;;;;;5023052;28;20172;-68
2023/05/08 00:16:27;;;;;;;7.07;4.90;;;8.00;99.90;;;;;;5032868;28;20168;-68
2023/05/08 00:18:53;;;;;;;5.90;5.07;;;8.00;99.90;;;;;;5027178;28;20851;-67
2023/05/08 00:21:19;;;;;;;5.50;5.10;;;8.00;99.90;;;;;;5024439;28;20176;-67
2023/05/08 00:23:45;;;;;;;5.90;4.57;;;8.00;99.90;;;;;;5030212;28;20414;-68
2023/05/08 00:26:10;;;;;;;5.30;4.80;;;7.90;99.90;;;;;;5024121;28;20203;-68
2023/05/08 00:28:36;;;;;;;5.00;4.60;;;7.90;99.90;;;;;;5032442;28;20207;-68
2023/05/08 00:31:02;;;;;;;5.83;5.23;;;7.80;99.90;;;;;;5024626;28;20196;-68
2023/05/08 00:33:27;;;;;;;5.43;5.00;;;7.80;99.90;;;;;;5024806;28;20250;-68
2023/05/08 00:36:02;;;;;;;5.83;4.50;;;7.80;99.90;;;;;;5027323;28;20524;-69
2023/05/08 00:38:32;;;;;;;5.40;4.90;;;7.70;99.90;;;;;;5025421;28;20191;-69
2023/05/08 00:40:58;;;;;;;5.47;5.00;;;7.70;99.90;;;;;;5028756;28;20958;-68
2023/05/08 00:43:26;;;;;;;5.50;5.10;;;7.70;99.90;;;;;;5026208;28;20502;-68
2023/05/08 00:45:54;;;;;;;5.53;5.03;;;7.70;99.90;;;;;;5031369;28;20557;-68
2023/05/08 00:48:21;;;;;;;8.43;5.90;;;7.70;99.90;;;;;;5026350;28;20450;-68
2023/05/08 00:50:47;;;;;;;5.87;4.57;;;7.70;99.90;;;;;;5029218;28;20888;-67
2023/05/08 00:53:14;;;;;;;7.97;5.90;;;7.60;99.90;;;;;;5026012;28;20411;-67
2023/05/08 00:55:39;;;;;;;5.53;5.03;;;7.60;99.90;;;;;;5029646;28;20434;-68
2023/05/08 00:58:05;;;;;;;7.23;6.07;;;7.60;99.90;;;;;;5026966;28;20956;-68
2023/05/08 01:00:32;;;;;;;6.73;6.00;;;7.60;99.90;;;;;;5022905;28;20182;-68
2023/05/08 01:02:59;;;;;;;5.50;5.00;;;7.60;99.90;;;;;;5028199;28;20426;-68
2023/05/08 01:05:26;;;;;;;6.57;5.40;;;7.60;99.90;;;;;;5022660;28;21002;-68
2023/05/08 01:07:51;;;;;;;5.80;4.90;;;7.50;99.90;;;;;;5028541;28;20517;-67
2023/05/08 01:10:17;;;;;;;6.20;5.50;;;7.50;99.90;;;;;;5025961;28;20590;-68
2023/05/08 01:13:03;;;;;;;5.63;5.13;;;7.50;99.90;;;;;;5029572;28;20507;-69
2023/05/08 01:15:56;;;;;;;5.27;4.80;;;7.40;99.90;;;;;;5022901;28;20168;-70
2023/05/08 01:18:46;;;;;;;6.80;6.07;;;7.40;99.90;;;;;;5030089;28;20430;-69
2023/05/08 01:21:19;;;;;;;7.37;5.47;;;7.30;99.90;;;;;;5025622;28;20415;-69
2023/05/08 01:24:22;;;;;;;6.67;4.97;;;7.30;99.90;;;;;;5027270;28;20407;-68
2023/05/08 01:27:06;;;;;;;6.93;5.47;;;7.20;99.90;;;;;;5023480;28;20521;-70
2023/05/08 01:30:09;;;;;;;5.93;5.00;;;7.20;99.90;;;;;;5013460;28;20520;-68
2023/05/08 01:32:41;;;;;;;7.37;6.17;;;7.20;99.90;;;;;;5016692;28;20405;-68
2023/05/08 01:35:33;;;;;;;5.70;5.20;;;7.20;99.90;;;;;;5025878;28;20439;-67
2023/05/08 01:38:41;;;;;;;5.10;4.60;;;7.20;99.90;;;;;;5020923;28;20802;-68
2023/05/08 01:41:17;;;;;;;6.30;5.70;;;7.10;99.90;;;;;;5015623;28;20438;-66
2023/05/08 01:43:58;;;;;;;6.80;6.20;;;7.10;99.90;;;;;;5029872;28;20406;-68
2023/05/08 01:46:26;;;;;;;6.17;5.60;;;7.10;99.90;;;;;;5025447;28;20533;-66
2023/05/08 01:49:13;;;;;;;6.10;5.60;;;7.00;99.90;;;;;;5015912;28;20482;-68
2023/05/08 01:51:47;;;;;;;10.80;6.10;;;7.10;99.90;;;;;;5013353;28;20421;-67
2023/05/08 01:54:18;;;;;;;5.37;4.87;;;7.00;99.90;;;;;;5021599;28;20495;-67
2023/05/08 01:56:46;;;;;;;7.30;6.10;;;7.00;99.90;;;;;;5027673;28;20426;-67
2023/05/08 01:59:15;;;;;;;6.40;5.77;;;7.00;99.90;;;;;;5024307;28;20458;-68
2023/05/08 02:01:42;;;;;;;5.07;4.57;;;6.90;99.90;;;;;;5028724;28;20406;-68
2023/05/08 02:04:10;;;;;;;6.10;5.50;;;6.90;99.90;;;;;;5025620;28;20421;-67
2023/05/08 02:06:37;;;;;;;6.17;5.60;;;6.90;99.90;;;;;;5021650;28;20530;-69
2023/05/08 02:09:06;;;;;;;7.30;5.43;;;6.80;99.90;;;;;;5026689;28;20528;-70
2023/05/08 02:11:34;;;;;;;6.40;5.17;;;6.80;99.90;;;;;;5020926;28;20414;-67
2023/05/08 02:14:01;;;;;;;6.73;6.00;;;6.80;99.90;;;;;;5019859;28;20414;-68
2023/05/08 02:16:29;;;;;;;6.60;6.00;;;6.70;99.90;;;;;;5027121;28;20480;-67
2023/05/08 02:18:57;;;;;;;6.70;6.03;;;6.70;99.90;;;;;;5018880;28;20470;-67
2023/05/08 02:21:24;;;;;;;7.80;6.20;;;6.70;99.90;;;;;;5027596;28;20472;-67
2023/05/08 02:23:51;;;;;;;6.70;6.10;;;6.70;99.90;;;;;;5022482;28;20411;-67
2023/05/08 02:26:18;;;;;;;6.70;5.53;;;6.70;99.90;;;;;;5028193;28;20462;-67
2023/05/08 02:28:44;;;;;;;6.07;5.47;;;6.60;99.90;;;;;;5024828;28;20929;-68
2023/05/08 02:31:11;;;;;;;5.90;5.37;;;6.60;99.90;;;;;;5020104;28;20411;-68
2023/05/08 02:33:40;;;;;;;6.43;5.87;;;6.60;99.90;;;;;;5027329;28;20425;-67
2023/05/08 02:36:07;;;;;;;6.37;5.77;;;6.60;99.90;;;;;;5019582;28;20434;-69
2023/05/08 02:38:36;;;;;;;7.87;5.40;;;6.60;99.90;;;;;;5029269;28;20442;-68
2023/05/08 02:41:04;;;;;;;6.40;5.77;;;6.60;99.90;;;;;;5017245;28;20411;-68
2023/05/08 02:43:30;;;;;;;6.53;5.80;;;6.50;99.90;;;;;;5013857;28;20513;-67
2023/05/08 02:46:11;;;;;;;7.00;5.53;;;6.50;99.90;;;;;;5021567;28;20542;-67
2023/05/08 02:49:21;;;;;;;7.00;5.40;;;6.50;99.90;;;;;;5008125;28;20321;-68
2023/05/08 02:51:59;;;;;;;5.17;4.77;;;6.50;99.90;;;;;;5014863;28;20947;-67
2023/05/08 02:54:42;;;;;;;6.80;6.00;;;6.50;99.90;;;;;;5021671;28;20587;-68
2023/05/08 02:57:45;;;;;;;8.83;5.63;;;6.50;99.90;;;;;;5027764;28;20422;-68
2023/05/08 03:00:17;;;;;;;6.03;5.50;;;6.40;99.90;;;;;;5025599;28;20525;-67
2023/05/08 03:03:30;;;;;;;6.87;4.90;;;6.40;99.90;;;;;;5026049;28;20804;-67
2023/05/08 03:06:00;;;;;;;6.27;5.37;;;6.40;99.90;;;;;;5016057;28;20473;-67
2023/05/08 03:08:33;;;;;;;6.43;5.83;;;6.40;99.90;;;;;;5025894;28;20453;-68
2023/05/08 03:11:02;;;;;;;8.83;6.00;;;6.40;99.90;;;;;;5023769;28;20468;-69
2023/05/08 03:13:33;;;;;;;6.33;5.50;;;6.40;99.90;;;;;;5024250;28;20864;-67
2023/05/08 03:16:01;;;;;;;7.63;6.90;;;6.50;99.90;;;;;;5023419;28;20986;-69
2023/05/08 03:18:35;;;;;;;6.23;5.63;;;6.40;99.90;;;;;;5023935;28;20438;-68
2023/05/08 03:21:02;;;;;;;6.03;5.40;;;6.40;99.90;;;;;;5025551;28;20442;-69
2023/05/08 03:23:30;;;;;;;6.67;5.97;;;6.40;99.90;;;;;;5025264;28;20924;-68
2023/05/08 03:25:58;;;;;;;6.00;5.40;;;6.40;99.90;;;;;;5025493;28;20496;-69
2023/05/08 03:28:24;;;;;;;7.53;6.50;;;6.40;99.90;;;;;;5027602;28;20481;-69
2023/05/08 03:30:51;;;;;;;6.73;5.67;;;6.40;99.90;;;;;;5014272;28;20826;-68
2023/05/08 03:33:19;;;;;;;8.40;6.10;;;6.40;99.90;;;;;;5026878;28;20421;-69
2023/05/08 03:35:45;;;;;;;5.47;4.97;;;6.40;99.90;;;;;;5021471;28;20447;-68
2023/05/08 03:38:11;;;;;;;6.40;5.20;;;6.40;99.90;;;;;;5026476;28;20559;-69
2023/05/08 03:40:43;;;;;;;5.50;4.93;;;6.40;99.90;;;;;;5024312;28;20406;-69
2023/05/08 03:43:10;;;;;;;7.57;5.83;;;6.40;99.90;;;;;;5027447;28;20266;-67
2023/05/08 03:45:37;;;;;;;6.67;5.80;;;6.40;99.90;;;;;;5025948;28;20457;-69
2023/05/08 03:48:04;;;;;;;7.17;5.30;;;6.30;99.90;;;;;;5022565;28;20437;-67
2023/05/08 03:50:31;;;;;;;6.80;5.90;;;6.30;99.90;;;;;;5020595;28;20877;-68
2023/05/08 03:52:58;;;;;;;6.43;5.87;;;6.30;99.90;;;;;;5019626;28;20434;-67
2023/05/08 03:55:24;;;;;;;6.63;6.03;;;6.30;99.90;;;;;;5032413;28;20757;-69
2023/05/08 03:57:58;;;;;;;9.30;6.97;;;6.30;99.90;;;;;;5026221;28;20451;-68
2023/05/08 04:00:33;;;;;;;6.43;5.77;;;6.40;99.90;;;;;;5031763;28;20434;-67
2023/05/08 04:03:16;;;;;;;6.70;6.10;;;6.40;99.90;;;;;;5026769;28;20406;-67
2023/05/08 04:06:25;;;;;;;7.17;5.73;;;6.40;99.90;;;;;;5013431;28;20814;-67
2023/05/08 04:09:02;;;;;;;8.23;6.50;;;6.40;99.90;;;;;;5029645;28;20434;-68
2023/05/08 04:11:52;;;;;;;8.90;7.27;;;6.40;99.90;;;;;;5025762;28;20456;-67
2023/05/08 04:14:20;;;;;;;7.37;6.27;;;6.40;99.90;;;;;;5022207;28;20749;-68
2023/05/08 04:16:52;;;;;;;7.07;5.57;;;6.50;99.90;;;;;;5029594;28;20424;-68
2023/05/08 04:19:23;;;;;;;8.10;6.50;;;6.50;99.90;;;;;;5025260;28;20757;-68
2023/05/08 04:21:50;;;;;;;7.30;6.50;;;6.50;99.90;;;;;;5030850;28;20492;-67
2023/05/08 04:24:18;;;;;;;8.23;6.40;;;6.50;99.90;;;;;;5025558;28;20746;-68
2023/05/08 04:26:44;;;;;;;8.20;6.50;;;6.60;99.90;;;;;;5033170;28;20465;-68
2023/05/08 04:29:10;;;;;;;7.40;6.47;;;6.60;99.90;;;;;;5025849;28;20525;-68
2023/05/08 04:31:37;;;;;;;7.83;6.67;;;6.70;99.90;;;;;;5026389;28;20454;-68
2023/05/08 04:34:03;;;;;;;7.07;6.37;;;6.70;99.90;;;;;;5025914;28;20183;-69
2023/05/08 04:36:30;;;;;;;7.50;6.30;;;6.80;99.90;;;;;;5025230;28;20410;-68
2023/05/08 04:38:56;;;;;;;11.90;7.63;;;6.80;99.90;;;;;;5029390;28;20504;-68
2023/05/08 04:41:21;;;;;;;7.93;6.10;;;6.90;99.90;;;;;;5026282;28;20443;-68
2023/05/08 04:43:48;;;;;;;7.07;5.73;;;6.90;99.90;;;;;;5030858;28;20660;-68
2023/05/08 04:46:14;;;;;;;7.37;6.47;;;7.00;99.90;;;;;;5025696;28;20204;-68
2023/05/08 04:48:39;;;;;;;7.67;6.40;;;7.00;99.90;;;;;;5025386;28;20457;-69
2023/05/08 04:51:05;;;;;;;7.70;6.33;;;7.10;99.90;;;;;;5026368;28;20172;-68
2023/05/08 04:53:31;;;;;;;6.17;5.67;;;7.10;99.90;;;;;;5026619;28;20645;-67
2023/05/08 04:55:57;;;;;;;6.60;5.63;;;7.20;99.90;;;;;;5027590;28;20311;-68
2023/05/08 04:58:23;;;;;;;8.30;6.10;;;7.30;99.90;;;;;;5024228;28;20843;-68
2023/05/08 05:00:48;;;;;;;5.90;5.17;;;7.40;99.90;;;;;;5031711;28;20430;-68
2023/05/08 05:03:14;;;;;;;7.03;5.53;;;7.40;99.90;;;;;;5025645;28;20215;-68
2023/05/08 05:05:40;;;;;;;7.87;6.40;;;7.50;99.90;;;;;;5024882;28;20202;-69
2023/05/08 05:08:05;;;;;;;6.53;5.93;;;7.70;99.90;;;;;;5026509;28;20667;-68
2023/05/08 05:10:31;;;;;;;6.87;4.93;;;8.00;99.90;;;;;;5026469;28;20514;-67
2023/05/08 05:12:56;;;;;;;5.47;4.97;;;8.60;99.90;;;;;;5029313;28;20184;-68
2023/05/08 05:15:22;;;;;;;6.40;4.30;;;9.10;99.90;;;;;;5021601;28;20180;-69
2023/05/08 05:17:48;;;;;;;4.93;4.43;;;9.60;99.90;;;;;;5028566;28;20199;-68
2023/05/08 05:20:13;;;;;;;7.30;5.20;;;9.90;99.90;;;;;;5024416;28;20242;-69
2023/05/08 05:22:39;;;;;;;7.20;4.70;;;10.20;99.90;;;;;;5029702;28;20180;-68
2023/05/08 05:25:05;;;;;;;5.00;4.43;;;10.50;99.90;;;;;;5026465;28;20215;-69
2023/05/08 05:27:35;;;;;;;5.47;3.80;;;10.80;99.90;;;;;;5030382;28;20460;-69
2023/05/08 05:30:01;;;;;;;4.67;4.20;;;10.90;99.90;;;;;;5027756;28;20450;-70
2023/05/08 05:32:26;;;;;;;7.37;4.50;;;11.30;99.90;;;;;;5022768;28;20465;-69
2023/05/08 05:34:52;;;;;;;4.67;4.17;;;11.40;99.90;;;;;;5028357;28;20176;-69
2023/05/08 05:37:18;;;;;;;4.70;4.27;;;11.30;99.90;;;;;;5022140;28;20185;-68
2023/05/08 05:39:44;;;;;;;4.87;4.47;;;11.40;99.90;;;;;;5024436;28;20794;-69
2023/05/08 05:42:09;;;;;;;4.50;4.10;;;11.70;99.90;;;;;;5028286;28;20175;-69
2023/05/08 05:44:36;;;;;;;5.90;5.00;;;11.50;99.90;;;;;;5017279;28;20180;-70
2023/05/08 05:47:03;;;;;;;4.80;4.03;;;11.80;99.90;;;;;;5026019;28;20211;-68
2023/05/08 05:49:29;;;;;;;6.70;4.00;;;11.90;99.90;;;;;;5025178;28;20523;-68
2023/05/08 05:51:55;;;;;;;4.70;3.80;;;12.00;99.90;;;;;;5027388;28;20501;-68
2023/05/08 05:54:21;;;;;;;4.93;3.60;;;12.40;99.90;;;;;;5023585;28;20215;-68
2023/05/08 05:56:47;;;;;;;6.07;3.80;;;12.50;99.90;;;;;;5029950;28;20410;-68
2023/05/08 05:59:13;;;;;;;3.27;3.07;;;12.90;99.90;;;;;;5024467;28;20451;-68
2023/05/08 06:01:38;;;;;;;3.60;3.30;;;12.70;99.90;;;;;;5024293;28;20195;-68
2023/05/08 06:04:04;;;;;;;5.23;3.30;;;12.80;99.90;;;;;;5004186;28;20586;-68
2023/05/08 06:06:30;;;;;;;4.10;3.23;;;12.30;99.90;;;;;;5024955;28;20207;-68
2023/05/08 06:08:56;;;;;;;4.00;3.53;;;12.90;99.90;;;;;;5027500;28;20673;-69
2023/05/08 06:11:22;;;;;;;3.80;2.93;;;13.10;99.90;;;;;;5023236;28;20416;-69
2023/05/08 06:13:48;;;;;;;4.63;3.60;;;13.00;99.90;;;;;;5026012;28;20183;-70
2023/05/08 06:16:14;;;;;;;3.60;3.23;;;13.40;99.90;;;;;;5027338;28;20736;-69
2023/05/08 06:18:40;;;;;;;3.40;2.97;;;13.80;99.90;;;;;;5023504;28;20199;-68
2023/05/08 06:21:06;;;;;;;3.40;3.10;;;14.30;99.90;;;;;;5027302;28;20420;-68
2023/05/08 06:23:31;;;;;;;3.63;3.10;;;14.50;99.90;;;;;;5026436;28;20494;-69
2023/05/08 06:25:57;;;;;;;3.40;2.90;;;13.90;99.90;;;;;;5026748;28;20636;-69
2023/05/08 06:28:24;;;;;;;2.83;2.57;;;13.80;99.90;;;;;;5028780;28;20437;-68
2023/05/08 06:30:50;;;;;;;3.20;2.80;;;14.10;99.90;;;;;;5015005;28;20175;-69
2023/05/08 06:33:16;;;;;;;3.73;2.50;;;14.40;99.90;;;;;;5027923;28;20951;-69
2023/05/08 06:35:46;;;;;;;3.57;2.23;;;13.80;99.90;;;;;;5023123;28;20515;-68
2023/05/08 06:38:12;;;;;;;3.30;3.00;;;14.40;99.90;;;;;;5027740;28;20223;-69
2023/05/08 06:40:42;;;;;;;3.17;2.87;;;14.70;99.90;;;;;;5025523;28;20924;-68
2023/05/08 06:43:08;;;;;;;2.90;2.10;;;14.80;99.90;;;;;;5028566;28;20437;-69
2023/05/08 06:45:33;;;;;;;3.83;2.40;;;15.40;99.90;;;;;;5027208;28;20464;-70
2023/05/08 06:47:59;;;;;;;3.70;3.40;;;15.50;99.90;;;;;;5020286;28;20206;-70
2023/05/08 06:50:24;;;;;;;4.33;2.70;;;15.70;99.90;;;;;;5028999;28;20193;-69
2023/05/08 06:52:50;;;;;;;2.73;2.20;;;15.70;99.90;;;;;;5055057;22;20701;-69
2023/05/08 06:55:16;;;;;;;13.90;3.30;;;16.00;99.90;;;;;;5054688;28;20171;-70
2023/05/08 06:57:41;;;;;;;4.70;3.00;;;15.50;99.90;;;;;;5057577;28;20203;-68
2023/05/08 07:00:09;;;;;;;4.20;2.93;;;16.00;99.90;;;;;;5061692;28;20170;-69
2023/05/08 07:02:34;;;;;;;5.97;2.50;;;16.20;99.90;;;;;;5051686;28;20563;-69
2023/05/08 07:05:00;;;;;;;2.23;2.10;;;16.70;99.30;;;;;;5042700;28;20402;-69
2023/05/08 07:07:26;;;;;;;2.60;2.27;;;16.50;99.30;;;;;;5042104;28;20164;-69
2023/05/08 07:09:51;;;;;;;2.77;2.13;;;17.00;98.10;;;;;;5045689;28;20178;-69
2023/05/08 07:12:17;;;;;;;2.77;2.47;;;16.90;97.50;;;;;;5033852;28;20260;-69
2023/05/08 07:14:43;;;;;;;3.30;2.70;;;16.10;97.60;;;;;;5049259;28;20170;-68
2023/05/08 07:17:11;;;;;;;2.70;2.23;;;16.40;97.80;;;;;;5041414;28;20503;-70
2023/05/08 07:19:37;;;;;;;3.40;2.53;;;16.50;98.00;;;;;;5050001;28;20582;-69
2023/05/08 07:22:04;;;;;;;3.20;2.60;;;17.10;96.80;;;;;;5044486;28;20449;-69
2023/05/08 07:24:31;;;;;;;5.30;2.80;;;16.30;97.10;;;;;;5026063;28;20566;-69
2023/05/08 07:26:58;;;;;;;2.47;2.27;;;16.70;96.00;;;;;;5043438;28;20465;-68
2023/05/08 07:29:27;;;;;;;2.60;2.40;;;15.90;97.40;;;;;;5043068;28;20468;-68
2023/05/08 07:31:52;;;;;;;3.83;2.53;;;16.80;97.00;;;;;;5048437;28;20847;-69
2023/05/08 07:34:18;;;;;;;3.20;2.23;;;17.00;94.80;;;;;;5043247;28;20519;-69
2023/05/08 07:36:44;;;;;;;3.20;2.77;;;16.40;95.40;;;;;;5042561;28;20181;-70
2023/05/08 07:39:10;;;;;;;7.73;2.57;;;16.30;95.30;;;;;;5042128;28;20186;-69
2023/05/08 07:41:37;;;;;;;2.47;2.27;;;16.70;93.70;;;;;;5043217;28;20204;-69
2023/05/08 07:44:03;;;;;;;2.80;2.60;;;16.80;93.90;;;;;;5045467;28;20201;-70
2023/05/08 07:46:28;;;;;;;2.80;2.13;;;17.10;93.10;;;;;;5043491;28;20455;-69
2023/05/08 07:48:54;;;;;;;3.10;2.63;;;16.90;93.10;;;;;;5048038;28;20243;-69
2023/05/08 07:51:20;;;;;;;2.90;2.70;;;17.30;92.30;;;;;;5043341;28;20198;-67
2023/05/08 07:53:47;;;;;;;2.77;2.43;;;17.00;91.80;;;;;;5042204;28;20287;-69
2023/05/08 07:56:13;;;;;;;2.80;2.60;;;16.40;92.40;;;;;;5044125;28;20273;-70
2023/05/08 07:58:39;;;;;;;4.90;2.40;;;16.80;92.40;;;;;;5045169;28;20452;-70
2023/05/08 08:01:04;;;;;;;2.73;2.47;;;16.70;91.50;;;;;;5048939;28;20249;-70
2023/05/08 08:03:30;;;;;;;3.23;2.93;;;17.30;90.70;;;;;;5046129;28;20947;-70
2023/05/08 08:05:56;;;;;;;4.20;2.07;;;17.20;91.50;;;;;;5041759;28;20229;-69
2023/05/08 08:08:22;;;;;;;2.50;1.90;;;17.40;92.10;;;;;;5044377;28;20522;-69
2023/05/08 08:10:48;;;;;;;3.57;1.77;;;18.70;90.50;;;;;;5043258;28;20744;-69
2023/05/08 08:13:14;;;;;;;2.53;1.93;;;18.20;88.90;;;;;;5045184;28;20665;-69
2023/05/08 08:15:40;;;;;;;2.57;2.00;;;18.20;87.90;;;;;;5044208;28;20444;-70
2023/05/08 08:18:06;;;;;;;5.20;2.60;;;18.30;88.00;;;;;;5047752;28;20197;-70
2023/05/08 08:20:32;;;;;;;2.20;2.10;;;18.30;87.50;;;;;;5045099;28;20499;-69
2023/05/08 08:22:58;;;;;;;3.13;2.00;;;17.90;89.50;;;;;;5041213;28;20922;-69
2023/05/08 08:25:24;;;;;;;2.60;2.17;;;18.20;87.40;;;;;;5044532;28;20480;-68
2023/05/08 08:27:49;;;;;;;2.30;2.10;;;18.30;86.20;;;;;;5042891;28;20401;-70
2023/05/08 08:30:15;;;;;;;2.70;2.33;;;18.80;83.20;;;;;;5045533;28;20591;-70
2023/05/08 08:32:41;;;;;;;2.43;1.77;;;18.30;81.90;;;;;;5044676;28;20199;-69
2023/05/08 08:35:07;;;;;;;2.57;2.37;;;18.00;81.70;;;;;;5050565;28;20176;-68
2023/05/08 08:37:33;;;;;;;3.07;2.00;;;17.60;79.90;;;;;;5048200;28;20246;-69
2023/05/08 08:39:59;;;;;;;2.73;2.47;;;17.30;80.30;;;;;;5045192;28;20499;-69
2023/05/08 08:42:24;;;;;;;2.03;1.90;;;17.60;80.10;;;;;;5047949;28;20260;-69
2023/05/08 08:44:50;;;;;;;2.40;2.20;;;17.50;80.20;;;;;;5046629;28;20555;-69
2023/05/08 08:47:18;;;;;;;3.50;3.20;;;17.30;80.60;;;;;;5048955;28;20167;-70
2023/05/08 08:49:48;;;;;;;2.73;2.40;;;17.50;81.80;;;;;;5047623;28;20261;-69
2023/05/08 08:52:46;;;;;;;2.37;1.90;;;18.40;79.00;;;;;;5042085;28;20459;-69
2023/05/08 08:55:16;;;;;;;2.50;2.03;;;18.50;78.80;;;;;;5047511;28;20424;-69
2023/05/08 08:57:54;;;;;;;3.80;2.50;;;18.10;77.20;;;;;;5044750;28;20458;-69
2023/05/08 09:00:22;;;;;;;2.93;2.37;;;17.90;76.40;;;;;;5048398;28;20415;-70
2023/05/08 09:02:48;;;;;;;2.20;2.00;;;17.60;76.50;;;;;;5044161;28;20438;-69
2023/05/08 09:05:14;;;;;;;2.30;1.97;;;18.10;74.30;;;;;;5042896;28;20588;-68
2023/05/08 09:07:40;;;;;;;4.23;2.07;;;18.40;71.60;;;;;;5050219;28;20175;-70
2023/05/08 09:10:07;;;;;;;3.00;1.83;;;18.00;71.10;;;;;;5042936;28;20420;-70
2023/05/08 09:12:33;;;;;;;5.37;1.80;;;17.80;73.00;;;;;;5051824;28;20472;-70
2023/05/08 09:14:58;;;;;;;3.30;2.17;;;18.80;71.00;;;;;;5044255;28;20551;-70
2023/05/08 09:17:24;;;;;;;4.63;2.40;;;18.70;70.10;;;;;;5051568;28;20213;-69
2023/05/08 09:19:51;;;;;;;2.57;2.20;;;18.00;69.90;;;;;;5046576;28;20210;-69
2023/05/08 09:22:17;;;;;;;2.80;2.00;;;18.10;70.50;;;;;;5042988;28;20181;-69
2023/05/08 09:25:00;;;;;;;3.73;2.23;;;17.90;68.90;;;;;;5049386;28;20794;-69
2023/05/08 09:27:30;;;;;;;2.50;2.30;;;17.90;70.70;;;;;;5045174;28;20184;-70
2023/05/08 09:30:02;;;;;;;2.53;2.30;;;17.90;71.80;;;;;;5049492;28;20537;-70
2023/05/08 09:32:29;;;;;;;2.70;2.50;;;17.60;69.80;;;;;;5045956;28;20457;-70
2023/05/08 09:34:55;;;;;;;2.47;2.27;;;17.90;70.20;;;;;;5050936;28;20502;-69
2023/05/08 09:37:21;;;;;;;2.90;2.10;;;17.70;71.30;;;;;;5046089;28;20484;-69
2023/05/08 09:39:46;;;;;;;3.53;2.30;;;17.60;71.70;;;;;;5045230;28;20180;-69
2023/05/08 09:42:12;;;;;;;2.43;2.13;;;17.90;71.80;;;;;;5046377;28;20174;-69
2023/05/08 09:44:46;;;;;;;2.30;2.10;;;18.30;72.60;;;;;;5045781;28;20181;-68
2023/05/08 09:47:14;;;;;;;2.50;1.97;;;18.80;72.00;;;;;;5048141;28;20410;-70
2023/05/08 09:49:55;;;;;;;4.10;2.23;;;18.50;69.80;;;;;;5046432;28;20404;-70
2023/05/08 09:52:21;;;;;;;2.17;1.97;;;18.20;70.20;;;;;;5041329;28;20394;-69
2023/05/08 09:54:55;;;;;;;6.20;1.87;;;18.40;70.20;;;;;;5047070;28;20916;-70
2023/05/08 09:57:20;;;;;;;2.37;2.17;;;18.00;71.70;;;;;;5042440;28;20461;-69
2023/05/08 09:59:46;;;;;;;4.30;2.00;;;17.40;72.00;;;;;;5047426;28;20419;-67
2023/05/08 10:02:15;;;;;;;2.20;1.90;;;17.00;73.00;;;;;;5044899;28;20222;-68
2023/05/08 10:04:41;;;;;;;1.80;1.70;;;16.90;72.20;;;;;;5042049;28;20199;-68
2023/05/08 10:07:07;;;;;;;2.30;2.10;;;17.00;73.80;;;;;;5046465;28;20453;-69
2023/05/08 10:09:32;;;;;;;2.20;1.87;;;16.80;71.40;;;;;;5044644;28;20412;-69
2023/05/08 10:11:58;;;;;;;2.40;2.20;;;16.50;73.80;;;;;;5046101;28;20195;-69
2023/05/08 10:14:24;;;;;;;2.60;2.30;;;16.10;72.30;;;;;;5047867;28;20232;-69
2023/05/08 10:16:51;;;;;;;2.00;1.77;;;15.80;76.30;;;;;;5046040;28;20183;-68
2023/05/08 10:19:20;;;;;;;3.93;1.90;;;16.10;74.00;;;;;;5054453;28;20422;-69
2023/05/08 10:21:48;;;;;;;1.80;1.70;;;16.10;73.80;;;;;;5041271;28;20775;-69
2023/05/08 10:24:19;;;;;;;4.23;1.70;;;16.30;72.50;;;;;;5046842;28;20435;-71
2023/05/08 10:27:23;;;;;;;1.83;1.73;;;16.30;71.10;;;;;;5043160;28;20951;-70
2023/05/08 10:29:53;;;;;;;2.53;1.73;;;16.30;71.80;;;;;;5039847;28;20425;-70
2023/05/08 10:32:20;;;;;;;1.63;1.53;;;16.30;69.70;;;;;;5043752;28;20763;-69
2023/05/08 10:34:51;;;;;;;1.73;1.63;;;16.20;68.60;;;;;;5054438;28;20432;-69
2023/05/08 10:37:17;;;;;;;2.63;1.90;;;16.40;68.50;;;;;;5046435;28;20505;-69
2023/05/08 10:39:45;;;;;;;2.10;1.90;;;16.50;69.80;;;;;;5043580;28;20572;-69
2023/05/08 10:42:14;;;;;;;2.17;1.60;;;16.40;69.60;;;;;;5045045;28;20176;-68
2023/05/08 10:44:39;;;;;;;2.90;1.93;;;16.40;69.50;;;;;;5044456;28;20407;-69
2023/05/08 10:47:47;;;;;;;1.50;1.40;;;16.40;70.20;;;;;;5050675;28;20576;-70
2023/05/08 10:50:31;;;;;;;2.07;1.90;;;16.60;70.80;;;;;;5043571;28;20191;-70
2023/05/08 10:53:23;;;;;;;1.77;1.67;;;16.60;67.40;;;;;;5043421;28;20454;-69
2023/05/08 10:55:50;;;;;;;1.63;1.47;;;16.80;67.90;;;;;;5038453;28;20512;-69
2023/05/08 10:58:33;;;;;;;2.00;1.80;;;16.40;66.80;;;;;;5047114;28;20907;-70
2023/05/08 11:00:58;;;;;;;3.47;1.57;;;16.20;69.00;;;;;;5040868;28;20466;-69
2023/05/08 11:03:28;;;;;;;3.23;1.97;;;16.20;69.70;;;;;;5044683;28;20584;-68
2023/05/08 11:05:56;;;;;;;1.70;1.60;;;16.20;69.90;;;;;;5042515;28;20198;-70
2023/05/08 11:08:26;;;;;;;5.63;3.03;;;16.30;70.20;;;;;;5045066;28;20822;-68
2023/05/08 11:11:00;;;;;;;2.20;2.00;;;16.50;70.00;;;;;;5043877;28;20792;-69
2023/05/08 11:13:34;;;;;;;2.20;2.00;;;16.70;69.70;;;;;;5046132;28;20471;-70
2023/05/08 11:16:00;;;;;;;3.40;2.30;;;16.70;67.80;;;;;;5044502;28;20430;-68
2023/05/08 11:18:26;;;;;;;2.07;1.83;;;16.40;67.20;;;;;;5047269;28;20411;-70
2023/05/08 11:20:56;;;;;;;3.00;2.00;;;16.30;68.10;;;;;;5038866;28;20508;-68
2023/05/08 11:23:24;;;;;;;3.50;1.60;;;16.50;67.80;;;;;;5039803;28;20431;-69
2023/05/08 11:25:59;;;;;;;2.13;1.83;;;16.70;67.60;;;;;;5045867;28;20512;-68
2023/05/08 11:28:24;;;;;;;1.90;1.53;;;16.70;67.80;;;;;;5042371;28;20406;-69
2023/05/08 11:30:54;;;;;;;1.60;1.50;;;16.70;68.60;;;;;;5046620;28;20414;-69
2023/05/08 11:33:20;;;;;;;2.40;1.80;;;16.70;68.10;;;;;;5044017;28;20256;-69
2023/05/08 11:35:50;;;;;;;1.70;1.60;;;16.80;68.60;;;;;;5047646;28;20433;-69
2023/05/08 11:38:16;;;;;;;1.93;1.73;;;17.10;67.00;;;;;;5044058;28;20175;-70
2023/05/08 11:40:57;;;;;;;2.63;2.20;;;17.20;65.00;;;;;;5041847;28;20428;-69
2023/05/08 11:43:31;;;;;;;1.70;1.60;;;17.40;67.10;;;;;;5044834;28;20209;-68
2023/05/08 11:46:18;;;;;;;2.43;1.90;;;17.40;66.70;;;;;;5044431;28;20488;-68
2023/05/08 11:48:44;;;;;;;3.03;1.60;;;17.10;66.50;;;;;;5037750;28;20458;-68
2023/05/08 11:51:10;;;;;;;1.90;1.60;;;16.80;67.10;;;;;;5038963;28;20411;-69
2023/05/08 11:53:36;;;;;;;2.03;1.50;;;17.20;67.60;;;;;;5046276;28;20456;-68
2023/05/08 11:56:02;;;;;;;5.00;1.60;;;17.30;67.80;;;;;;5038856;28;20411;-68
2023/05/08 11:58:28;;;;;;;2.03;1.87;;;17.40;66.50;;;;;;5048278;28;20414;-69
2023/05/08 12:00:54;;;;;;;1.97;1.53;;;17.50;66.60;;;;;;5042169;28;20437;-69
2023/05/08 12:03:21;;;;;;;2.40;1.93;;;17.60;66.00;;;;;;5046853;28;20194;-70
2023/05/08 12:05:49;;;;;;;4.40;1.60;;;17.80;66.20;;;;;;5042420;28;20455;-69
2023/05/08 12:08:16;;;;;;;2.00;1.80;;;17.70;64.20;;;;;;5045464;28;20411;-69
2023/05/08 12:10:45;;;;;;;2.33;1.90;;;17.50;64.10;;;;;;5046837;28;20415;-68
2023/05/08 12:13:19;;;;;;;1.73;1.57;;;17.30;64.20;;;;;;5048385;28;20447;-68
2023/05/08 12:15:47;;;;;;;2.03;1.70;;;17.40;64.60;;;;;;5041478;28;20853;-69
2023/05/08 12:18:13;;;;;;;1.40;1.30;;;17.50;63.00;;;;;;5050966;28;21045;-68
2023/05/08 12:20:38;;;;;;;3.17;2.27;;;17.70;61.80;;;;;;5048820;28;20447;-68
2023/05/08 12:23:04;;;;;;;2.47;2.00;;;17.70;62.60;;;;;;5044311;28;20442;-68
2023/05/08 12:25:29;;;;;;;1.80;1.57;;;17.70;64.20;;;;;;5032993;28;20563;-68
2023/05/08 12:27:55;;;;;;;1.53;1.40;;;17.70;63.80;;;;;;5047057;28;20638;-69
2023/05/08 12:30:21;;;;;;;5.83;1.70;;;17.70;64.40;;;;;;5048762;28;20628;-69
2023/05/08 12:32:47;;;;;;;2.63;1.60;;;17.60;64.90;;;;;;5047493;28;20196;-69
2023/05/08 12:35:13;;;;;;;3.20;1.50;;;17.60;63.70;;;;;;5040817;28;20184;-69
2023/05/08 12:37:39;;;;;;;1.80;1.70;;;17.80;63.30;;;;;;5048640;28;20185;-69
2023/05/08 12:40:06;;;;;;;1.90;1.70;;;17.60;60.50;;;;;;5044083;28;20419;-69
2023/05/08 12:43:04;;;;;;;2.90;1.63;;;17.50;60.60;;;;;;5048976;28;20583;-68
2023/05/08 12:45:35;;;;;;;1.77;1.30;;;17.60;59.70;;;;;;5015990;28;20549;-69
2023/05/08 12:48:04;;;;;;;3.43;1.73;;;17.60;60.20;;;;;;5049633;28;20741;-68
2023/05/08 12:50:34;;;;;;;1.57;1.47;;;17.60;61.80;;;;;;5038486;28;20427;-68
2023/05/08 12:53:15;;;;;;;2.73;2.03;;;17.80;62.30;;;;;;5046297;28;20461;-68
2023/05/08 12:55:52;;;;;;;2.63;1.87;;;17.90;61.30;;;;;;5040005;28;20420;-69
2023/05/08 12:58:19;;;;;;;3.43;1.47;;;17.70;60.50;;;;;;5051738;28;20415;-69
2023/05/08 13:00:52;;;;;;;2.00;1.80;;;17.90;60.80;;;;;;5045576;28;20435;-69
2023/05/08 13:03:26;;;;;;;3.73;2.03;;;17.90;59.30;;;;;;5044524;28;20431;-70